createdAt,value
2022-08-28T00:00:00.218Z,0
2022-08-28T00:05:00.290Z,0
2022-08-28T00:10:00.188Z,0
2022-08-28T00:15:00.166Z,0
2022-08-28T00:20:00.196Z,0
2022-08-28T00:25:00.183Z,0
2022-08-28T00:30:00.244Z,0
2022-08-28T00:35:00.181Z,0
2022-08-28T00:40:00.329Z,0
2022-08-28T00:45:00.217Z,0
2022-08-28T00:50:00.201Z,0
2022-08-28T00:55:00.182Z,0
2022-08-28T01:00:00.222Z,0
2022-08-28T01:05:00.176Z,0
2022-08-28T01:10:00.185Z,0
2022-08-28T01:15:00.305Z,0
2022-08-28T01:20:00.172Z,0
2022-08-28T01:25:00.177Z,0
2022-08-28T01:30:00.191Z,0
2022-08-28T01:35:00.151Z,0
2022-08-28T01:40:00.358Z,0
2022-08-28T01:45:00.174Z,0
2022-08-28T01:50:00.168Z,0
2022-08-28T01:55:00.228Z,0
2022-08-28T02:00:00.244Z,0
2022-08-28T02:05:00.159Z,0
2022-08-28T02:10:00.194Z,0
2022-08-28T02:15:00.171Z,0
2022-08-28T02:20:00.167Z,0
2022-08-28T02:25:00.173Z,0
2022-08-28T02:30:00.169Z,0
2022-08-28T02:35:00.174Z,0
2022-08-28T02:40:00.306Z,0
2022-08-28T02:45:00.175Z,0
2022-08-28T02:50:00.184Z,0
2022-08-28T02:55:00.175Z,0
2022-08-28T03:00:00.214Z,0
2022-08-28T03:05:00.190Z,0
2022-08-28T03:10:00.213Z,0
2022-08-28T03:15:00.191Z,0
2022-08-28T03:20:00.185Z,0
2022-08-28T03:25:00.175Z,0
2022-08-28T03:30:00.205Z,0
2022-08-28T03:35:00.184Z,0
2022-08-28T03:40:00.351Z,0
2022-08-28T03:45:00.169Z,0
2022-08-28T03:50:00.206Z,0
2022-08-28T03:55:00.162Z,0
2022-08-28T04:00:00.217Z,0
2022-08-28T04:05:00.179Z,2
2022-08-28T04:10:00.175Z,4
2022-08-28T04:15:00.199Z,7
2022-08-28T04:20:00.174Z,15
2022-08-28T04:25:00.175Z,35
2022-08-28T04:30:00.221Z,72
2022-08-28T04:35:00.189Z,147
2022-08-28T04:40:00.332Z,238
2022-08-28T04:45:00.159Z,382
2022-08-28T04:50:00.204Z,546
2022-08-28T04:55:02.375Z,719
2022-08-28T05:00:00.199Z,912
2022-08-28T05:05:00.184Z,1154
2022-08-28T05:10:00.179Z,1391
2022-08-28T05:15:00.183Z,1563
2022-08-28T05:20:00.198Z,1756
2022-08-28T05:25:00.177Z,1974
2022-08-28T05:30:02.127Z,2215
2022-08-28T05:35:00.201Z,2340
2022-08-28T05:40:00.304Z,2485
2022-08-28T05:45:00.207Z,2630
2022-08-28T05:50:00.212Z,2789
2022-08-28T05:55:00.213Z,2956
2022-08-28T06:00:00.276Z,2956
2022-08-28T06:05:00.211Z,3129
2022-08-28T06:10:00.200Z,3321
2022-08-28T06:15:00.171Z,3385
2022-08-28T06:20:00.508Z,3738
2022-08-28T06:25:00.173Z,4251
2022-08-28T06:30:00.202Z,4251
2022-08-28T06:35:00.187Z,3783
2022-08-28T06:40:00.347Z,3643
2022-08-28T06:45:00.195Z,3643
2022-08-28T06:50:00.209Z,3643
2022-08-28T06:55:00.218Z,3643
2022-08-28T07:00:00.247Z,3643
2022-08-28T07:05:00.192Z,3643
2022-08-28T07:10:00.210Z,4089
2022-08-28T07:15:00.194Z,4089
2022-08-28T07:20:00.209Z,4250
2022-08-28T07:25:00.192Z,4250
2022-08-28T07:30:00.235Z,4250
2022-08-28T07:35:00.196Z,4596
2022-08-28T07:40:00.332Z,4596
2022-08-28T07:45:00.216Z,4777
2022-08-28T07:50:00.212Z,4777
2022-08-28T07:55:00.237Z,5394
2022-08-28T08:00:00.227Z,6066
2022-08-28T08:05:00.181Z,5527
2022-08-28T08:10:00.254Z,6279
2022-08-28T08:15:00.184Z,6240
2022-08-28T08:20:00.200Z,7050
2022-08-28T08:25:00.182Z,7508
2022-08-28T08:30:00.236Z,5385
2022-08-28T08:35:00.169Z,6457
2022-08-28T08:40:00.387Z,5041
2022-08-28T08:45:00.172Z,4234
2022-08-28T08:50:00.175Z,9160
2022-08-28T08:55:00.181Z,8837
2022-08-28T09:00:00.254Z,8694
2022-08-28T09:05:00.193Z,10493
2022-08-28T09:10:00.194Z,9101
2022-08-28T09:15:00.319Z,9228
2022-08-28T09:20:00.302Z,8882
2022-08-28T09:25:00.296Z,10221
2022-08-28T09:30:07.410Z,8043
2022-08-28T09:35:00.303Z,12868
2022-08-28T09:40:00.398Z,7883
2022-08-28T09:45:00.275Z,11334
2022-08-28T09:50:00.392Z,9732
2022-08-28T09:55:00.485Z,11324
2022-08-28T10:00:00.337Z,7160
2022-08-28T10:05:00.277Z,14305
2022-08-28T10:10:00.273Z,13295
2022-08-28T10:15:00.272Z,12100
2022-08-28T10:20:00.323Z,9171
2022-08-28T10:25:00.418Z,10457
2022-08-28T10:30:05.953Z,12543
2022-08-28T10:35:00.237Z,7330
2022-08-28T10:40:00.394Z,6518
2022-08-28T10:45:01.213Z,7544
2022-08-28T10:50:00.232Z,13756
2022-08-28T10:55:00.242Z,13756
2022-08-28T11:00:00.294Z,6860
2022-08-28T11:05:00.215Z,7838
2022-08-28T11:10:00.221Z,8646
2022-08-28T11:15:00.283Z,15635
2022-08-28T11:20:00.271Z,15635
2022-08-28T11:25:04.422Z,14006
2022-08-28T11:30:00.256Z,8890
2022-08-28T11:35:00.256Z,8890
2022-08-28T11:40:00.366Z,9995
2022-08-28T11:45:00.330Z,13164
2022-08-28T11:50:00.316Z,16784
2022-08-28T11:55:00.320Z,11238
2022-08-28T12:00:00.361Z,18420
2022-08-28T12:05:00.287Z,23324
2022-08-28T12:10:04.844Z,10304
2022-08-28T12:15:00.336Z,21272
2022-08-28T12:20:00.251Z,9741
2022-08-28T12:25:00.277Z,28741
2022-08-28T12:30:00.332Z,32270
2022-08-28T12:35:00.264Z,36459
2022-08-28T12:40:00.351Z,19449
2022-08-28T12:45:00.566Z,16014
2022-08-28T12:50:00.250Z,14696
2022-08-28T12:55:00.198Z,42374
2022-08-28T13:00:00.232Z,14103
2022-08-28T13:05:00.318Z,10965
2022-08-28T13:10:00.204Z,12351
2022-08-28T13:15:00.197Z,14191
2022-08-28T13:20:00.236Z,18247
2022-08-28T13:25:00.197Z,24530
2022-08-28T13:30:01.123Z,63840
2022-08-28T13:35:00.201Z,28041
2022-08-28T13:40:00.473Z,62893
2022-08-28T13:45:00.213Z,62893
2022-08-28T13:50:00.208Z,62893
2022-08-28T13:55:00.200Z,62893
2022-08-28T14:00:00.242Z,70697
2022-08-28T14:05:00.256Z,11572
2022-08-28T14:10:00.213Z,11572
2022-08-28T14:15:00.194Z,13207
2022-08-28T14:20:00.220Z,32923
2022-08-28T14:25:00.228Z,37382
2022-08-28T14:30:00.373Z,16986
2022-08-28T14:35:00.190Z,9530
2022-08-28T14:40:00.306Z,8160
2022-08-28T14:45:00.349Z,10332
2022-08-28T14:50:00.488Z,13731
2022-08-28T14:55:00.224Z,57148
2022-08-28T15:00:00.334Z,9324
2022-08-28T15:05:00.233Z,10666
2022-08-28T15:10:00.243Z,83387
2022-08-28T15:15:00.186Z,13989
2022-08-28T15:20:00.196Z,10179
2022-08-28T15:25:00.207Z,9975
2022-08-28T15:30:00.273Z,79177
2022-08-28T15:35:00.366Z,68913
2022-08-28T15:40:00.596Z,77607
2022-08-28T15:45:00.235Z,80612
2022-08-28T15:50:00.204Z,80612
2022-08-28T15:55:00.280Z,80612
2022-08-28T16:00:00.320Z,68265
2022-08-28T16:05:00.276Z,6424
2022-08-28T16:10:00.227Z,5713
2022-08-28T16:15:00.207Z,7295
2022-08-28T16:20:00.198Z,5723
2022-08-28T16:25:00.217Z,76666
2022-08-28T16:30:00.229Z,76666
2022-08-28T16:35:00.225Z,76666
2022-08-28T16:40:00.374Z,74319
2022-08-28T16:45:00.215Z,67344
2022-08-28T16:50:00.242Z,65902
2022-08-28T16:55:00.207Z,64983
2022-08-28T17:00:00.321Z,64983
2022-08-28T17:05:00.175Z,5927
2022-08-28T17:10:00.200Z,4002
2022-08-28T17:15:00.258Z,3712
2022-08-28T17:20:00.190Z,4175
2022-08-28T17:25:00.189Z,4307
2022-08-28T17:30:00.214Z,4307
2022-08-28T17:35:00.171Z,4873
2022-08-28T17:40:00.299Z,7537
2022-08-28T17:45:00.195Z,5034
2022-08-28T17:50:00.189Z,4470
2022-08-28T17:55:00.179Z,3529
2022-08-28T18:00:00.215Z,2523
2022-08-28T18:05:00.290Z,2178
2022-08-28T18:10:00.230Z,1743
2022-08-28T18:15:00.206Z,1221
2022-08-28T18:20:00.193Z,967
2022-08-28T18:25:00.196Z,680
2022-08-28T18:30:00.234Z,480
2022-08-28T18:35:00.209Z,326
2022-08-28T18:40:00.331Z,208
2022-08-28T18:45:00.265Z,120
2022-08-28T18:50:00.298Z,63
2022-08-28T18:55:00.623Z,29
2022-08-28T19:00:00.261Z,14
2022-08-28T19:05:00.217Z,7
2022-08-28T19:15:00.217Z,3
2022-08-28T19:20:00.176Z,2
2022-08-28T19:25:00.185Z,0
2022-08-28T19:30:00.189Z,0
2022-08-28T19:35:00.182Z,0
2022-08-28T19:40:00.284Z,0
2022-08-28T19:45:00.262Z,0
2022-08-28T19:50:00.208Z,0
2022-08-28T19:55:00.223Z,0
2022-08-28T20:00:00.393Z,0
2022-08-28T20:05:00.165Z,0
2022-08-28T20:10:00.192Z,0
2022-08-28T20:15:03.463Z,0
2022-08-28T20:20:03.008Z,0
2022-08-28T20:25:00.161Z,0
2022-08-28T20:30:00.180Z,0
2022-08-28T20:35:00.176Z,0
2022-08-28T20:40:00.367Z,0
2022-08-28T20:45:00.182Z,0
2022-08-28T20:50:00.203Z,0
2022-08-28T20:55:00.177Z,0
2022-08-28T21:00:04.812Z,0
2022-08-28T21:05:00.320Z,0
2022-08-28T21:10:05.633Z,0
2022-08-28T21:15:00.208Z,0
2022-08-28T21:20:00.426Z,0
2022-08-28T21:25:00.197Z,0
2022-08-28T21:30:00.210Z,0
2022-08-28T21:35:00.192Z,0
2022-08-28T21:40:00.279Z,0
2022-08-28T21:45:00.210Z,0
2022-08-28T21:50:00.182Z,0
2022-08-28T21:55:00.179Z,0
2022-08-28T22:00:00.271Z,0
2022-08-28T22:05:00.180Z,0
2022-08-28T22:10:00.193Z,0
2022-08-28T22:15:00.176Z,0
2022-08-28T22:20:00.205Z,0
2022-08-28T22:25:00.177Z,0
2022-08-28T22:30:00.255Z,0
2022-08-28T22:35:00.178Z,0
2022-08-28T22:40:00.277Z,0
2022-08-28T22:45:00.184Z,0
2022-08-28T22:50:00.188Z,0
2022-08-28T22:55:00.176Z,0
2022-08-28T23:00:00.222Z,0
2022-08-28T23:05:00.192Z,0
2022-08-28T23:10:00.186Z,0
2022-08-28T23:15:00.166Z,0
2022-08-28T23:20:00.206Z,0
2022-08-28T23:25:00.200Z,0
2022-08-28T23:30:00.206Z,0
2022-08-28T23:35:00.173Z,0
2022-08-28T23:40:00.287Z,0
2022-08-28T23:45:00.188Z,0
2022-08-28T23:50:00.156Z,0
2022-08-28T23:55:00.170Z,0
